Terminal Aerodrome Forecast
Issued by NWS

Home | Current Version | Previous Version | Text Only | Print | Product List | Glossary On
Versions: 1 2 3 4 5 6 7 8 9 10 11 12 13 14 15 16 17
326
FTUS43 KMQT 161737
TAFCMX
TAF
KCMX 161737Z 1618/1718 11008KT P6SM SKC
     FM162300 10008G15KT P6SM BKN080
     FM170500 11009G16KT P6SM VCSH OVC060
     FM171000 10011G19KT 6SM -SHRA OVC020
     FM171400 10012G20KT 5SM -SHRA OVC008=

USA.gov is the U.S. government's official web portal to all federal, state and local government web resources and services.